Mc Dowell, West Virginia
Current Conditions -  °F | °C
As of 8:52 AM on Thursday 18 Dec 2014 (Local Time) from KBLF Reporting Station
Broken Clouds Broken Clouds  
Wind Chill: 22°   Ceiling: 1000
Heat Index: 27°   Visibility: 10mi
Dew Point: 21°   Wind: 5mph
Humidity: 78%   Direction: 310°NW
Pressure: 30.13"   Gusts: NA
Location:  37.3807°N, 81.4099°W
Report Text: KBLF 181352Z AUTO 31004KT 10SM BKN010 M03/M06 A3013 RMK AO2 SLP221 T10281061
Loading
Personal Weather Stations






























Interactive Weather Map New forecast layout! Learn more

10-Day Weather Forecast

Advertisements
Track Severe Weather on mobile